DAL1196 KEYW-KMLB
Flight info
| Callsign | DAL1196 |
|---|---|
| Flight time | 0h 49m |
| Altitude | 36000 |
| Route | BUFTT1 GUFFS FERAL JOKRS4 |
| Aircraft | A319/M-SDE3FGHIRWY/LB1 |
Departure
| Time | 2026-05-04 20:47 |
|---|---|
| Airport | Key West International Airport (KEYW) |
Arrival
| Time | 2026-05-04 21:37 |
|---|---|
| Airport | Melbourne Orlando International Airport (KMLB) |
| Time | Latitude | Longitude | Altitude | Speed | Heading |
|---|---|---|---|---|---|
| 2026-05-04 20:31 | 24.55437 | -81.75419 | 14 ft | 0 kts | 180° |
| 2026-05-04 20:38 | 24.55450 | -81.75419 | 14 ft | 2 kts | 180° |
| 2026-05-04 20:38 | 24.55466 | -81.75419 | 14 ft | 2 kts | 183° |
| 2026-05-04 20:38 | 24.55482 | -81.75414 | 12 ft | 2 kts | 224° |
| 2026-05-04 20:39 | 24.55489 | -81.75399 | 12 ft | 2 kts | 270° |
| 2026-05-04 20:39 | 24.55489 | -81.75398 | 12 ft | 0 kts | 270° |
| 2026-05-04 20:41 | 24.55489 | -81.75400 | 12 ft | 1 kts | 270° |
| 2026-05-04 20:42 | 24.55489 | -81.75420 | 13 ft | 3 kts | 270° |
| 2026-05-04 20:42 | 24.55499 | -81.75445 | 14 ft | 4 kts | 311° |
| 2026-05-04 20:42 | 24.55523 | -81.75455 | 12 ft | 4 kts | 329° |
| 2026-05-04 20:42 | 24.55530 | -81.75481 | 14 ft | 4 kts | 271° |
| 2026-05-04 20:43 | 24.55531 | -81.75520 | 12 ft | 7 kts | 271° |
| 2026-05-04 20:43 | 24.55530 | -81.75582 | 13 ft | 10 kts | 269° |
| 2026-05-04 20:43 | 24.55529 | -81.75660 | 12 ft | 11 kts | 269° |
| 2026-05-04 20:43 | 24.55529 | -81.75744 | 12 ft | 11 kts | 269° |
| 2026-05-04 20:44 | 24.55528 | -81.75834 | 12 ft | 12 kts | 269° |
| 2026-05-04 20:44 | 24.55527 | -81.75929 | 12 ft | 13 kts | 269° |
| 2026-05-04 20:44 | 24.55526 | -81.76031 | 12 ft | 14 kts | 269° |
| 2026-05-04 20:44 | 24.55525 | -81.76139 | 12 ft | 14 kts | 269° |
| 2026-05-04 20:45 | 24.55523 | -81.76251 | 12 ft | 15 kts | 269° |
| 2026-05-04 20:45 | 24.55522 | -81.76367 | 12 ft | 16 kts | 269° |
| 2026-05-04 20:45 | 24.55521 | -81.76488 | 12 ft | 16 kts | 269° |
| 2026-05-04 20:45 | 24.55520 | -81.76592 | 12 ft | 8 kts | 269° |
| 2026-05-04 20:46 | 24.55531 | -81.76651 | 13 ft | 8 kts | 306° |
| 2026-05-04 20:46 | 24.55579 | -81.76663 | 11 ft | 6 kts | 360° |
| 2026-05-04 20:46 | 24.55606 | -81.76647 | 11 ft | 5 kts | 85° |
| 2026-05-04 20:46 | 24.55605 | -81.76644 | 11 ft | 0 kts | 91° |
| 2026-05-04 20:47 | 24.55606 | -81.76530 | 11 ft | 50 kts | 89° |
| 2026-05-04 20:47 | 24.55614 | -81.75880 | 13 ft | 117 kts | 89° |
| 2026-05-04 20:47 | 24.55628 | -81.74849 | 285 ft | 142 kts | 88° |
| 2026-05-04 20:47 | 24.55648 | -81.73758 | 957 ft | 143 kts | 83° |
| 2026-05-04 20:48 | 24.56082 | -81.72780 | 1578 ft | 143 kts | 50° |
| 2026-05-04 20:48 | 24.56788 | -81.71954 | 2006 ft | 161 kts | 44° |
| 2026-05-04 20:48 | 24.57639 | -81.71031 | 2404 ft | 183 kts | 43° |
| 2026-05-04 20:48 | 24.58606 | -81.69989 | 2726 ft | 208 kts | 43° |
| 2026-05-04 20:49 | 24.59697 | -81.68809 | 3143 ft | 232 kts | 43° |
| 2026-05-04 20:49 | 24.61049 | -81.67707 | 3614 ft | 255 kts | 21° |
| 2026-05-04 20:49 | 24.62804 | -81.67122 | 4259 ft | 270 kts | 15° |
| 2026-05-04 20:49 | 24.64612 | -81.66456 | 5150 ft | 277 kts | 17° |
| 2026-05-04 20:50 | 24.66443 | -81.65715 | 6049 ft | 283 kts | 18° |
| 2026-05-04 20:50 | 24.68300 | -81.64944 | 6930 ft | 288 kts | 18° |
| 2026-05-04 20:50 | 24.70188 | -81.64162 | 7814 ft | 292 kts | 17° |
| 2026-05-04 20:50 | 24.72104 | -81.63379 | 8707 ft | 296 kts | 17° |
| 2026-05-04 20:51 | 24.74049 | -81.62595 | 9585 ft | 300 kts | 16° |
| 2026-05-04 20:51 | 24.76029 | -81.61807 | 10273 ft | 311 kts | 15° |
| 2026-05-04 20:51 | 24.78145 | -81.60979 | 10562 ft | 334 kts | 15° |
| 2026-05-04 20:51 | 24.80398 | -81.60102 | 11011 ft | 350 kts | 15° |
| 2026-05-04 20:52 | 24.82715 | -81.59194 | 11679 ft | 357 kts | 15° |
| 2026-05-04 20:52 | 24.85078 | -81.58281 | 12375 ft | 363 kts | 14° |
| 2026-05-04 20:52 | 24.87488 | -81.57392 | 13076 ft | 367 kts | 13° |
| 2026-05-04 20:52 | 24.89935 | -81.56515 | 13765 ft | 373 kts | 12° |
| 2026-05-04 20:53 | 24.92421 | -81.55634 | 14367 ft | 377 kts | 12° |
| 2026-05-04 20:53 | 24.94933 | -81.54745 | 14992 ft | 381 kts | 12° |
| 2026-05-04 20:53 | 24.97466 | -81.53839 | 15633 ft | 384 kts | 12° |
| 2026-05-04 20:53 | 25.00017 | -81.52920 | 16265 ft | 388 kts | 12° |
| 2026-05-04 20:54 | 25.02592 | -81.51987 | 16900 ft | 391 kts | 12° |
| 2026-05-04 20:54 | 25.05188 | -81.51048 | 17514 ft | 394 kts | 12° |
| 2026-05-04 20:54 | 25.07805 | -81.50097 | 18130 ft | 398 kts | 12° |
| 2026-05-04 20:54 | 25.10446 | -81.49139 | 18683 ft | 402 kts | 12° |
| 2026-05-04 20:55 | 25.13078 | -81.48188 | 19198 ft | 405 kts | 12° |
| 2026-05-04 20:55 | 25.15769 | -81.47217 | 19737 ft | 408 kts | 12° |
| 2026-05-04 20:55 | 25.18479 | -81.46234 | 20283 ft | 411 kts | 12° |
| 2026-05-04 20:55 | 25.21208 | -81.45241 | 20826 ft | 414 kts | 12° |
| 2026-05-04 20:56 | 25.23955 | -81.44241 | 21366 ft | 418 kts | 12° |
| 2026-05-04 20:56 | 25.26724 | -81.43233 | 21909 ft | 420 kts | 12° |
| 2026-05-04 20:56 | 25.29512 | -81.42220 | 22447 ft | 423 kts | 12° |
| 2026-05-04 20:56 | 25.32323 | -81.41202 | 22972 ft | 426 kts | 11° |
| 2026-05-04 20:57 | 25.35154 | -81.40176 | 23481 ft | 429 kts | 11° |
| 2026-05-04 20:57 | 25.38000 | -81.39142 | 23907 ft | 432 kts | 11° |
| 2026-05-04 20:57 | 25.40866 | -81.38100 | 24341 ft | 435 kts | 11° |
| 2026-05-04 20:57 | 25.43766 | -81.37182 | 24740 ft | 431 kts | 4° |
| 2026-05-04 20:58 | 25.46718 | -81.36852 | 25140 ft | 423 kts | 352° |
| 2026-05-04 20:58 | 25.49613 | -81.37148 | 25539 ft | 415 kts | 341° |
| 2026-05-04 20:58 | 25.52356 | -81.38018 | 25954 ft | 407 kts | 331° |
| 2026-05-04 20:58 | 25.54864 | -81.39406 | 26358 ft | 400 kts | 322° |
| 2026-05-04 20:59 | 25.57229 | -81.41044 | 26769 ft | 402 kts | 321° |
| 2026-05-04 20:59 | 25.59609 | -81.42685 | 27187 ft | 404 kts | 321° |
| 2026-05-04 20:59 | 25.62006 | -81.44327 | 27598 ft | 406 kts | 321° |
| 2026-05-04 20:59 | 25.64415 | -81.45973 | 28012 ft | 408 kts | 321° |
| 2026-05-04 21:00 | 25.66837 | -81.47628 | 28412 ft | 410 kts | 321° |
| 2026-05-04 21:00 | 25.69270 | -81.49290 | 28808 ft | 412 kts | 321° |
| 2026-05-04 21:00 | 25.71716 | -81.50965 | 29208 ft | 414 kts | 321° |
| 2026-05-04 21:00 | 25.74173 | -81.52657 | 29555 ft | 417 kts | 321° |
| 2026-05-04 21:01 | 25.76644 | -81.54360 | 29913 ft | 419 kts | 321° |
| 2026-05-04 21:01 | 25.79126 | -81.56071 | 30231 ft | 421 kts | 321° |
| 2026-05-04 21:01 | 25.81623 | -81.57790 | 30526 ft | 424 kts | 322° |
| 2026-05-04 21:01 | 25.84136 | -81.59515 | 30818 ft | 426 kts | 322° |
| 2026-05-04 21:02 | 25.86681 | -81.61221 | 31088 ft | 431 kts | 325° |
| 2026-05-04 21:02 | 25.89463 | -81.62559 | 31357 ft | 442 kts | 335° |
| 2026-05-04 21:02 | 25.92484 | -81.63396 | 31649 ft | 450 kts | 341° |
| 2026-05-04 21:02 | 25.95507 | -81.64091 | 32039 ft | 449 kts | 341° |
| 2026-05-04 21:03 | 25.98562 | -81.64790 | 32431 ft | 448 kts | 341° |
| 2026-05-04 21:03 | 26.01619 | -81.65492 | 32836 ft | 448 kts | 341° |
| 2026-05-04 21:03 | 26.04667 | -81.66195 | 33276 ft | 447 kts | 340° |
| 2026-05-04 21:03 | 26.07713 | -81.66903 | 33655 ft | 447 kts | 340° |
| 2026-05-04 21:04 | 26.10756 | -81.67615 | 34037 ft | 447 kts | 340° |
| 2026-05-04 21:04 | 26.13795 | -81.68329 | 34372 ft | 446 kts | 340° |
| 2026-05-04 21:04 | 26.16829 | -81.69043 | 34707 ft | 446 kts | 340° |
| 2026-05-04 21:04 | 26.19860 | -81.69752 | 35035 ft | 445 kts | 340° |
| 2026-05-04 21:05 | 26.22889 | -81.70455 | 35351 ft | 445 kts | 340° |
| 2026-05-04 21:05 | 26.25916 | -81.71157 | 35673 ft | 444 kts | 340° |
| 2026-05-04 21:05 | 26.28939 | -81.71862 | 35935 ft | 444 kts | 340° |
| 2026-05-04 21:05 | 26.31961 | -81.72570 | 35991 ft | 443 kts | 340° |
| 2026-05-04 21:06 | 26.37974 | -81.73976 | 36005 ft | 441 kts | 340° |
| 2026-05-04 21:06 | 26.43969 | -81.75380 | 36008 ft | 440 kts | 340° |
| 2026-05-04 21:07 | 26.49972 | -81.76760 | 36008 ft | 443 kts | 343° |
| 2026-05-04 21:07 | 26.53083 | -81.77012 | 36008 ft | 454 kts | 353° |
| 2026-05-04 21:07 | 26.56257 | -81.76860 | 36008 ft | 457 kts | 354° |
| 2026-05-04 21:08 | 26.62607 | -81.76516 | 36007 ft | 457 kts | 354° |
| 2026-05-04 21:08 | 26.68961 | -81.76192 | 36017 ft | 457 kts | 354° |
| 2026-05-04 21:09 | 26.75318 | -81.75876 | 35936 ft | 458 kts | 354° |
| 2026-05-04 21:09 | 26.78502 | -81.75714 | 35688 ft | 458 kts | 354° |
| 2026-05-04 21:09 | 26.81688 | -81.75549 | 35445 ft | 458 kts | 354° |
| 2026-05-04 21:10 | 26.84876 | -81.75382 | 35206 ft | 459 kts | 354° |
| 2026-05-04 21:10 | 26.88068 | -81.75213 | 34970 ft | 459 kts | 354° |
| 2026-05-04 21:10 | 26.91262 | -81.75041 | 34734 ft | 460 kts | 355° |
| 2026-05-04 21:10 | 26.94459 | -81.74870 | 34533 ft | 460 kts | 355° |
| 2026-05-04 21:11 | 26.97664 | -81.74701 | 34309 ft | 461 kts | 355° |
| 2026-05-04 21:11 | 27.00874 | -81.74536 | 34078 ft | 462 kts | 354° |
| 2026-05-04 21:11 | 27.04091 | -81.74369 | 33818 ft | 463 kts | 355° |
| 2026-05-04 21:11 | 27.07312 | -81.74181 | 33555 ft | 464 kts | 355° |
| 2026-05-04 21:12 | 27.10532 | -81.73972 | 33059 ft | 464 kts | 355° |
| 2026-05-04 21:12 | 27.13790 | -81.73755 | 31818 ft | 474 kts | 355° |
| 2026-05-04 21:12 | 27.17101 | -81.73534 | 30871 ft | 477 kts | 355° |
| 2026-05-04 21:12 | 27.20384 | -81.73307 | 30305 ft | 470 kts | 355° |
| 2026-05-04 21:13 | 27.23635 | -81.73082 | 29586 ft | 465 kts | 355° |
| 2026-05-04 21:13 | 27.26817 | -81.73117 | 28904 ft | 449 kts | 347° |
| 2026-05-04 21:13 | 27.29798 | -81.73700 | 28282 ft | 433 kts | 338° |
| 2026-05-04 21:13 | 27.32650 | -81.74655 | 27674 ft | 425 kts | 336° |
| 2026-05-04 21:14 | 27.35459 | -81.75611 | 27078 ft | 419 kts | 336° |
| 2026-05-04 21:14 | 27.38241 | -81.76547 | 26489 ft | 414 kts | 336° |
| 2026-05-04 21:14 | 27.41026 | -81.77477 | 25901 ft | 410 kts | 336° |
| 2026-05-04 21:14 | 27.43708 | -81.78371 | 25340 ft | 405 kts | 336° |
| 2026-05-04 21:15 | 27.46437 | -81.79282 | 24764 ft | 402 kts | 337° |
| 2026-05-04 21:15 | 27.49104 | -81.80176 | 24242 ft | 398 kts | 337° |
| 2026-05-04 21:15 | 27.51747 | -81.81068 | 23703 ft | 395 kts | 337° |
| 2026-05-04 21:15 | 27.54340 | -81.81942 | 23146 ft | 392 kts | 337° |
| 2026-05-04 21:16 | 27.56943 | -81.82815 | 22642 ft | 388 kts | 337° |
| 2026-05-04 21:16 | 27.59518 | -81.83682 | 22185 ft | 385 kts | 337° |
| 2026-05-04 21:16 | 27.62078 | -81.84524 | 21719 ft | 383 kts | 340° |
| 2026-05-04 21:16 | 27.64774 | -81.84929 | 21228 ft | 390 kts | 352° |
| 2026-05-04 21:17 | 27.67499 | -81.84687 | 20739 ft | 396 kts | 5° |
| 2026-05-04 21:17 | 27.70129 | -81.83826 | 20231 ft | 402 kts | 15° |
| 2026-05-04 21:17 | 27.72744 | -81.82725 | 19709 ft | 401 kts | 15° |
| 2026-05-04 21:17 | 27.75354 | -81.81620 | 19172 ft | 400 kts | 15° |
| 2026-05-04 21:18 | 27.77960 | -81.80515 | 18638 ft | 400 kts | 15° |
| 2026-05-04 21:18 | 27.80567 | -81.79415 | 18050 ft | 400 kts | 15° |
| 2026-05-04 21:18 | 27.83171 | -81.78318 | 17495 ft | 398 kts | 16° |
| 2026-05-04 21:18 | 27.85759 | -81.77230 | 16937 ft | 396 kts | 16° |
| 2026-05-04 21:19 | 27.87497 | -81.76498 | 16569 ft | 394 kts | 17° |
| 2026-05-04 21:19 | 27.90023 | -81.75432 | 16043 ft | 391 kts | 17° |
| 2026-05-04 21:19 | 27.92616 | -81.74601 | 15589 ft | 382 kts | 6° |
| 2026-05-04 21:19 | 27.95184 | -81.74088 | 15466 ft | 368 kts | 6° |
| 2026-05-04 21:20 | 27.97656 | -81.73570 | 15345 ft | 355 kts | 7° |
| 2026-05-04 21:20 | 28.00043 | -81.73058 | 15234 ft | 343 kts | 7° |
| 2026-05-04 21:20 | 28.02340 | -81.72498 | 15107 ft | 333 kts | 14° |
| 2026-05-04 21:20 | 28.04406 | -81.71446 | 14886 ft | 322 kts | 28° |
| 2026-05-04 21:21 | 28.06212 | -81.69975 | 14474 ft | 317 kts | 34° |
| 2026-05-04 21:21 | 28.07965 | -81.68483 | 14119 ft | 314 kts | 34° |
| 2026-05-04 21:21 | 28.09710 | -81.66996 | 13758 ft | 314 kts | 34° |
| 2026-05-04 21:21 | 28.11450 | -81.65515 | 13424 ft | 312 kts | 34° |
| 2026-05-04 21:22 | 28.13181 | -81.64040 | 13075 ft | 308 kts | 36° |
| 2026-05-04 21:22 | 28.14523 | -81.62195 | 12692 ft | 307 kts | 66° |
| 2026-05-04 21:22 | 28.14973 | -81.59838 | 12374 ft | 308 kts | 88° |
| 2026-05-04 21:22 | 28.14868 | -81.57421 | 12040 ft | 307 kts | 98° |
| 2026-05-04 21:23 | 28.14543 | -81.55023 | 11699 ft | 308 kts | 101° |
| 2026-05-04 21:23 | 28.14178 | -81.52639 | 11367 ft | 307 kts | 100° |
| 2026-05-04 21:23 | 28.13856 | -81.50254 | 11033 ft | 306 kts | 98° |
| 2026-05-04 21:23 | 28.13596 | -81.47867 | 10695 ft | 305 kts | 97° |
| 2026-05-04 21:24 | 28.13387 | -81.45484 | 10362 ft | 304 kts | 96° |
| 2026-05-04 21:24 | 28.13205 | -81.43103 | 10029 ft | 303 kts | 96° |
| 2026-05-04 21:24 | 28.13039 | -81.40732 | 9673 ft | 301 kts | 95° |
| 2026-05-04 21:24 | 28.12878 | -81.38409 | 9342 ft | 298 kts | 95° |
| 2026-05-04 21:25 | 28.12716 | -81.36078 | 9016 ft | 296 kts | 95° |
| 2026-05-04 21:25 | 28.12554 | -81.33770 | 8688 ft | 290 kts | 95° |
| 2026-05-04 21:25 | 28.12399 | -81.31537 | 8332 ft | 280 kts | 95° |
| 2026-05-04 21:25 | 28.12247 | -81.29379 | 8061 ft | 267 kts | 95° |
| 2026-05-04 21:26 | 28.12100 | -81.27343 | 7826 ft | 255 kts | 96° |
| 2026-05-04 21:26 | 28.11953 | -81.25342 | 7535 ft | 255 kts | 97° |
| 2026-05-04 21:26 | 28.11807 | -81.23351 | 7261 ft | 251 kts | 96° |
| 2026-05-04 21:26 | 28.11664 | -81.21394 | 6987 ft | 249 kts | 96° |
| 2026-05-04 21:27 | 28.11522 | -81.19440 | 6683 ft | 249 kts | 96° |
| 2026-05-04 21:27 | 28.11380 | -81.17497 | 6408 ft | 246 kts | 96° |
| 2026-05-04 21:27 | 28.11240 | -81.15570 | 6118 ft | 244 kts | 96° |
| 2026-05-04 21:27 | 28.11102 | -81.13666 | 5847 ft | 241 kts | 96° |
| 2026-05-04 21:28 | 28.10965 | -81.11786 | 5589 ft | 239 kts | 96° |
| 2026-05-04 21:28 | 28.10828 | -81.09917 | 5329 ft | 237 kts | 96° |
| 2026-05-04 21:28 | 28.10690 | -81.08067 | 5067 ft | 235 kts | 95° |
| 2026-05-04 21:28 | 28.10556 | -81.06234 | 4806 ft | 232 kts | 95° |
| 2026-05-04 21:29 | 28.10424 | -81.04423 | 4538 ft | 229 kts | 95° |
| 2026-05-04 21:29 | 28.10292 | -81.02641 | 4287 ft | 225 kts | 95° |
| 2026-05-04 21:29 | 28.10162 | -81.00891 | 4044 ft | 221 kts | 94° |
| 2026-05-04 21:29 | 28.10033 | -80.99170 | 3801 ft | 217 kts | 94° |
| 2026-05-04 21:30 | 28.09905 | -80.97479 | 3577 ft | 213 kts | 94° |
| 2026-05-04 21:30 | 28.09783 | -80.95853 | 3505 ft | 201 kts | 94° |
| 2026-05-04 21:30 | 28.09668 | -80.94315 | 3425 ft | 191 kts | 94° |
| 2026-05-04 21:30 | 28.09558 | -80.92837 | 3349 ft | 186 kts | 94° |
| 2026-05-04 21:31 | 28.09342 | -80.89932 | 3184 ft | 186 kts | 92° |
| 2026-05-04 21:31 | 28.09220 | -80.88473 | 3100 ft | 186 kts | 94° |
| 2026-05-04 21:31 | 28.09158 | -80.87031 | 3020 ft | 182 kts | 88° |
| 2026-05-04 21:32 | 28.09186 | -80.85599 | 3010 ft | 183 kts | 86° |
| 2026-05-04 21:32 | 28.09244 | -80.84174 | 2887 ft | 183 kts | 86° |
| 2026-05-04 21:32 | 28.09313 | -80.82710 | 2693 ft | 183 kts | 86° |
| 2026-05-04 21:32 | 28.09382 | -80.81297 | 2482 ft | 182 kts | 86° |
| 2026-05-04 21:33 | 28.09452 | -80.79883 | 2264 ft | 175 kts | 86° |
| 2026-05-04 21:33 | 28.09518 | -80.78553 | 2053 ft | 164 kts | 85° |
| 2026-05-04 21:33 | 28.09581 | -80.77272 | 1852 ft | 162 kts | 85° |
| 2026-05-04 21:33 | 28.09643 | -80.76019 | 1655 ft | 153 kts | 86° |
| 2026-05-04 21:34 | 28.09697 | -80.74916 | 1473 ft | 131 kts | 87° |
| 2026-05-04 21:34 | 28.09746 | -80.73920 | 1317 ft | 125 kts | 86° |
| 2026-05-04 21:34 | 28.09794 | -80.72951 | 1164 ft | 122 kts | 85° |
| 2026-05-04 21:34 | 28.09840 | -80.71998 | 1020 ft | 121 kts | 85° |
| 2026-05-04 21:35 | 28.09886 | -80.71061 | 882 ft | 117 kts | 85° |
| 2026-05-04 21:35 | 28.09932 | -80.70128 | 745 ft | 119 kts | 85° |
| 2026-05-04 21:35 | 28.09978 | -80.69184 | 589 ft | 122 kts | 85° |
| 2026-05-04 21:35 | 28.10025 | -80.68231 | 435 ft | 120 kts | 85° |
| 2026-05-04 21:36 | 28.10070 | -80.67298 | 289 ft | 119 kts | 85° |
| 2026-05-04 21:36 | 28.10114 | -80.66365 | 120 ft | 119 kts | 86° |
| 2026-05-04 21:36 | 28.10161 | -80.65449 | 37 ft | 108 kts | 87° |
| 2026-05-04 21:36 | 28.10194 | -80.64764 | 35 ft | 63 kts | 87° |
| 2026-05-04 21:37 | 28.10212 | -80.64378 | 33 ft | 45 kts | 87° |
| 2026-05-04 21:37 | 28.10229 | -80.64033 | 32 ft | 43 kts | 86° |
| 2026-05-04 21:37 | 28.10245 | -80.63702 | 32 ft | 41 kts | 88° |
| 2026-05-04 21:37 | 28.10257 | -80.63441 | 33 ft | 29 kts | 86° |
| 2026-05-04 21:38 | 28.10269 | -80.63209 | 32 ft | 30 kts | 86° |
| 2026-05-04 21:38 | 28.10278 | -80.63036 | 32 ft | 9 kts | 86° |
| 2026-05-04 21:38 | 28.10248 | -80.62975 | 31 ft | 11 kts | 161° |
| 2026-05-04 21:38 | 28.10164 | -80.62999 | 29 ft | 14 kts | 213° |
| 2026-05-04 21:39 | 28.10090 | -80.63059 | 30 ft | 12 kts | 201° |
| 2026-05-04 21:39 | 28.10012 | -80.63071 | 31 ft | 10 kts | 162° |
| 2026-05-04 21:39 | 28.09980 | -80.63006 | 31 ft | 10 kts | 102° |
| 2026-05-04 21:39 | 28.09948 | -80.62937 | 32 ft | 11 kts | 152° |
| 2026-05-04 21:40 | 28.09878 | -80.62929 | 32 ft | 6 kts | 190° |
| 2026-05-04 21:40 | 28.09833 | -80.62937 | 32 ft | 2 kts | 189° |
| 2026-05-04 21:40 | 28.09817 | -80.62948 | 32 ft | 3 kts | 224° |
| 2026-05-04 21:40 | 28.09816 | -80.62967 | 32 ft | 3 kts | 298° |
| 2026-05-04 21:41 | 28.09832 | -80.62987 | 32 ft | 4 kts | 316° |
| 2026-05-04 21:41 | 28.09844 | -80.62999 | 32 ft | 0 kts | 316° |